sensor_id;sensor_type;location;lat;lon;timestamp;P1;durP1;ratioP1;P2;durP2;ratioP2
61397;SDS011;47267;48.130;-2.040;2023-03-24T00:02:08;2.45;;;0.63;;
61397;SDS011;47267;48.130;-2.040;2023-03-24T00:04:34;1.67;;;0.60;;
61397;SDS011;47267;48.130;-2.040;2023-03-24T00:07:00;4.35;;;0.80;;
61397;SDS011;47267;48.130;-2.040;2023-03-24T00:09:27;1.98;;;0.75;;
61397;SDS011;47267;48.130;-2.040;2023-03-24T00:11:54;2.75;;;0.80;;
61397;SDS011;47267;48.130;-2.040;2023-03-24T00:14:21;2.05;;;0.80;;
61397;SDS011;47267;48.130;-2.040;2023-03-24T00:16:47;3.67;;;0.93;;
61397;SDS011;47267;48.130;-2.040;2023-03-24T00:19:14;1.65;;;0.68;;
61397;SDS011;47267;48.130;-2.040;2023-03-24T00:21:40;1.73;;;0.73;;
61397;SDS011;47267;48.130;-2.040;2023-03-24T00:24:07;2.47;;;0.77;;
61397;SDS011;47267;48.130;-2.040;2023-03-24T00:26:35;2.70;;;0.70;;
61397;SDS011;47267;48.130;-2.040;2023-03-24T00:29:03;1.95;;;0.80;;
61397;SDS011;47267;48.130;-2.040;2023-03-24T00:31:33;3.10;;;0.85;;
61397;SDS011;47267;48.130;-2.040;2023-03-24T00:34:03;3.13;;;0.73;;
61397;SDS011;47267;48.130;-2.040;2023-03-24T00:36:33;2.40;;;0.57;;
61397;SDS011;47267;48.130;-2.040;2023-03-24T00:39:00;1.52;;;0.82;;
61397;SDS011;47267;48.130;-2.040;2023-03-24T00:41:26;2.55;;;0.82;;
61397;SDS011;47267;48.130;-2.040;2023-03-24T00:43:54;1.73;;;0.63;;
61397;SDS011;47267;48.130;-2.040;2023-03-24T00:46:22;1.90;;;0.70;;
61397;SDS011;47267;48.130;-2.040;2023-03-24T00:48:55;3.63;;;0.65;;
61397;SDS011;47267;48.130;-2.040;2023-03-24T00:51:30;3.80;;;0.77;;
61397;SDS011;47267;48.130;-2.040;2023-03-24T00:53:57;2.55;;;0.60;;
61397;SDS011;47267;48.130;-2.040;2023-03-24T00:56:24;2.97;;;0.82;;
61397;SDS011;47267;48.130;-2.040;2023-03-24T00:58:51;2.72;;;0.60;;
61397;SDS011;47267;48.130;-2.040;2023-03-24T01:01:18;1.90;;;0.77;;
61397;SDS011;47267;48.130;-2.040;2023-03-24T01:03:46;2.85;;;0.80;;
61397;SDS011;47267;48.130;-2.040;2023-03-24T01:06:15;1.92;;;0.75;;
61397;SDS011;47267;48.130;-2.040;2023-03-24T01:08:42;2.60;;;0.77;;
61397;SDS011;47267;48.130;-2.040;2023-03-24T01:11:09;1.83;;;0.57;;
61397;SDS011;47267;48.130;-2.040;2023-03-24T01:13:37;2.40;;;0.70;;
61397;SDS011;47267;48.130;-2.040;2023-03-24T01:16:05;2.85;;;1.00;;
61397;SDS011;47267;48.130;-2.040;2023-03-24T01:18:31;3.60;;;0.98;;
61397;SDS011;47267;48.130;-2.040;2023-03-24T01:20:59;3.65;;;0.85;;
61397;SDS011;47267;48.130;-2.040;2023-03-24T01:23:26;2.00;;;0.80;;
61397;SDS011;47267;48.130;-2.040;2023-03-24T01:25:52;2.00;;;0.73;;
61397;SDS011;47267;48.130;-2.040;2023-03-24T01:28:19;3.15;;;0.98;;
61397;SDS011;47267;48.130;-2.040;2023-03-24T01:30:48;2.40;;;0.90;;
61397;SDS011;47267;48.130;-2.040;2023-03-24T01:33:15;3.80;;;1.23;;
61397;SDS011;47267;48.130;-2.040;2023-03-24T01:35:41;3.70;;;1.00;;
61397;SDS011;47267;48.130;-2.040;2023-03-24T01:38:08;3.90;;;0.93;;
61397;SDS011;47267;48.130;-2.040;2023-03-24T01:40:36;5.45;;;1.00;;
61397;SDS011;47267;48.130;-2.040;2023-03-24T01:43:03;3.00;;;0.90;;
61397;SDS011;47267;48.130;-2.040;2023-03-24T01:48:02;3.13;;;0.88;;
61397;SDS011;47267;48.130;-2.040;2023-03-24T01:50:34;3.35;;;1.15;;
61397;SDS011;47267;48.130;-2.040;2023-03-24T01:53:01;3.22;;;0.85;;
61397;SDS011;47267;48.130;-2.040;2023-03-24T01:55:27;2.55;;;0.80;;
61397;SDS011;47267;48.130;-2.040;2023-03-24T01:57:56;2.63;;;0.90;;
61397;SDS011;47267;48.130;-2.040;2023-03-24T02:00:25;3.55;;;0.80;;
61397;SDS011;47267;48.130;-2.040;2023-03-24T02:02:55;2.53;;;0.80;;
61397;SDS011;47267;48.130;-2.040;2023-03-24T02:05:27;4.03;;;1.00;;
61397;SDS011;47267;48.130;-2.040;2023-03-24T02:10:40;4.13;;;1.13;;
61397;SDS011;47267;48.130;-2.040;2023-03-24T02:13:08;2.80;;;1.00;;
61397;SDS011;47267;48.130;-2.040;2023-03-24T02:15:37;3.75;;;0.95;;
61397;SDS011;47267;48.130;-2.040;2023-03-24T02:18:16;4.88;;;1.10;;
61397;SDS011;47267;48.130;-2.040;2023-03-24T02:24:18;5.28;;;1.30;;
61397;SDS011;47267;48.130;-2.040;2023-03-24T02:26:58;3.03;;;0.98;;
61397;SDS011;47267;48.130;-2.040;2023-03-24T02:43:07;3.90;;;0.93;;
61397;SDS011;47267;48.130;-2.040;2023-03-24T02:45:51;4.15;;;0.95;;
61397;SDS011;47267;48.130;-2.040;2023-03-24T02:48:40;2.53;;;0.88;;
61397;SDS011;47267;48.130;-2.040;2023-03-24T02:56:33;3.67;;;1.02;;
61397;SDS011;47267;48.130;-2.040;2023-03-24T02:59:04;2.25;;;0.88;;
61397;SDS011;47267;48.130;-2.040;2023-03-24T03:01:33;2.90;;;0.90;;
61397;SDS011;47267;48.130;-2.040;2023-03-24T03:04:11;3.30;;;0.98;;
61397;SDS011;47267;48.130;-2.040;2023-03-24T03:06:44;5.25;;;1.05;;
61397;SDS011;47267;48.130;-2.040;2023-03-24T03:09:16;5.30;;;1.38;;
61397;SDS011;47267;48.130;-2.040;2023-03-24T03:11:47;4.30;;;1.10;;
61397;SDS011;47267;48.130;-2.040;2023-03-24T03:14:21;4.78;;;1.05;;
61397;SDS011;47267;48.130;-2.040;2023-03-24T03:19:19;3.50;;;0.90;;
61397;SDS011;47267;48.130;-2.040;2023-03-24T03:21:49;4.72;;;1.30;;
61397;SDS011;47267;48.130;-2.040;2023-03-24T03:24:21;4.05;;;1.35;;
61397;SDS011;47267;48.130;-2.040;2023-03-24T03:26:54;5.88;;;1.33;;
61397;SDS011;47267;48.130;-2.040;2023-03-24T03:29:25;3.58;;;0.85;;
61397;SDS011;47267;48.130;-2.040;2023-03-24T03:31:59;4.30;;;1.08;;
61397;SDS011;47267;48.130;-2.040;2023-03-24T03:40:19;8.00;;;1.60;;
61397;SDS011;47267;48.130;-2.040;2023-03-24T03:42:49;3.90;;;1.10;;
61397;SDS011;47267;48.130;-2.040;2023-03-24T03:45:15;5.18;;;1.48;;
61397;SDS011;47267;48.130;-2.040;2023-03-24T03:47:42;5.85;;;1.30;;
61397;SDS011;47267;48.130;-2.040;2023-03-24T03:50:08;6.03;;;1.52;;
61397;SDS011;47267;48.130;-2.040;2023-03-24T03:52:35;3.80;;;0.85;;
61397;SDS011;47267;48.130;-2.040;2023-03-24T03:55:03;5.47;;;1.15;;
61397;SDS011;47267;48.130;-2.040;2023-03-24T03:57:31;4.15;;;1.35;;
61397;SDS011;47267;48.130;-2.040;2023-03-24T03:59:59;4.75;;;1.38;;
61397;SDS011;47267;48.130;-2.040;2023-03-24T04:11:41;4.20;;;1.40;;
61397;SDS011;47267;48.130;-2.040;2023-03-24T04:17:34;5.88;;;1.50;;
61397;SDS011;47267;48.130;-2.040;2023-03-24T04:26:03;5.32;;;1.50;;
61397;SDS011;47267;48.130;-2.040;2023-03-24T04:28:49;4.63;;;1.33;;
61397;SDS011;47267;48.130;-2.040;2023-03-24T04:31:43;5.65;;;1.67;;
61397;SDS011;47267;48.130;-2.040;2023-03-24T04:34:24;4.35;;;1.33;;
61397;SDS011;47267;48.130;-2.040;2023-03-24T04:37:03;5.80;;;1.45;;
61397;SDS011;47267;48.130;-2.040;2023-03-24T04:39:36;6.00;;;1.60;;
61397;SDS011;47267;48.130;-2.040;2023-03-24T04:42:07;3.55;;;1.30;;
61397;SDS011;47267;48.130;-2.040;2023-03-24T04:44:35;5.77;;;1.23;;
61397;SDS011;47267;48.130;-2.040;2023-03-24T04:47:02;5.13;;;1.48;;
61397;SDS011;47267;48.130;-2.040;2023-03-24T04:49:29;6.55;;;1.35;;
61397;SDS011;47267;48.130;-2.040;2023-03-24T04:51:56;4.63;;;1.27;;
61397;SDS011;47267;48.130;-2.040;2023-03-24T04:54:22;6.72;;;1.63;;
61397;SDS011;47267;48.130;-2.040;2023-03-24T04:59:17;5.32;;;1.50;;
61397;SDS011;47267;48.130;-2.040;2023-03-24T05:01:43;5.03;;;1.55;;
61397;SDS011;47267;48.130;-2.040;2023-03-24T05:04:16;5.03;;;1.80;;
61397;SDS011;47267;48.130;-2.040;2023-03-24T05:06:43;4.22;;;1.30;;
61397;SDS011;47267;48.130;-2.040;2023-03-24T05:09:11;6.32;;;1.63;;
61397;SDS011;47267;48.130;-2.040;2023-03-24T05:11:38;5.40;;;1.88;;
61397;SDS011;47267;48.130;-2.040;2023-03-24T05:14:04;5.45;;;1.35;;
61397;SDS011;47267;48.130;-2.040;2023-03-24T05:16:30;6.45;;;1.60;;
61397;SDS011;47267;48.130;-2.040;2023-03-24T05:18:55;5.80;;;1.40;;
61397;SDS011;47267;48.130;-2.040;2023-03-24T05:21:21;8.82;;;1.58;;
61397;SDS011;47267;48.130;-2.040;2023-03-24T05:23:47;7.38;;;1.63;;
61397;SDS011;47267;48.130;-2.040;2023-03-24T05:26:13;6.35;;;1.65;;
61397;SDS011;47267;48.130;-2.040;2023-03-24T05:28:38;7.40;;;1.70;;
61397;SDS011;47267;48.130;-2.040;2023-03-24T05:31:04;8.73;;;2.25;;
61397;SDS011;47267;48.130;-2.040;2023-03-24T05:33:30;5.35;;;1.33;;
61397;SDS011;47267;48.130;-2.040;2023-03-24T05:35:56;6.78;;;1.48;;
61397;SDS011;47267;48.130;-2.040;2023-03-24T05:38:22;5.85;;;1.65;;
61397;SDS011;47267;48.130;-2.040;2023-03-24T05:40:47;6.43;;;1.80;;
61397;SDS011;47267;48.130;-2.040;2023-03-24T05:43:13;4.72;;;1.20;;
61397;SDS011;47267;48.130;-2.040;2023-03-24T05:45:39;7.60;;;1.92;;
61397;SDS011;47267;48.130;-2.040;2023-03-24T05:48:05;6.00;;;1.40;;
61397;SDS011;47267;48.130;-2.040;2023-03-24T05:50:31;5.22;;;1.40;;
61397;SDS011;47267;48.130;-2.040;2023-03-24T05:52:57;6.50;;;1.70;;
61397;SDS011;47267;48.130;-2.040;2023-03-24T05:55:23;4.32;;;1.38;;
61397;SDS011;47267;48.130;-2.040;2023-03-24T05:57:49;4.47;;;1.60;;
61397;SDS011;47267;48.130;-2.040;2023-03-24T06:00:15;5.38;;;1.25;;
61397;SDS011;47267;48.130;-2.040;2023-03-24T06:02:42;6.22;;;1.60;;
61397;SDS011;47267;48.130;-2.040;2023-03-24T06:05:09;3.22;;;1.45;;
61397;SDS011;47267;48.130;-2.040;2023-03-24T06:07:36;4.97;;;1.50;;
61397;SDS011;47267;48.130;-2.040;2023-03-24T06:10:03;6.18;;;1.50;;
61397;SDS011;47267;48.130;-2.040;2023-03-24T06:12:31;4.88;;;1.50;;
61397;SDS011;47267;48.130;-2.040;2023-03-24T06:14:58;6.22;;;1.80;;
61397;SDS011;47267;48.130;-2.040;2023-03-24T06:17:25;6.13;;;1.33;;
61397;SDS011;47267;48.130;-2.040;2023-03-24T06:19:53;6.68;;;1.75;;
61397;SDS011;47267;48.130;-2.040;2023-03-24T06:22:28;8.48;;;1.80;;
61397;SDS011;47267;48.130;-2.040;2023-03-24T06:24:55;5.78;;;1.60;;
61397;SDS011;47267;48.130;-2.040;2023-03-24T06:27:23;8.27;;;1.55;;
61397;SDS011;47267;48.130;-2.040;2023-03-24T06:29:54;8.18;;;1.75;;
61397;SDS011;47267;48.130;-2.040;2023-03-24T06:32:23;6.72;;;1.70;;
61397;SDS011;47267;48.130;-2.040;2023-03-24T06:34:49;9.20;;;1.60;;
61397;SDS011;47267;48.130;-2.040;2023-03-24T06:37:16;6.68;;;1.48;;
61397;SDS011;47267;48.130;-2.040;2023-03-24T06:39:42;7.38;;;1.92;;
61397;SDS011;47267;48.130;-2.040;2023-03-24T06:42:07;6.45;;;1.50;;
61397;SDS011;47267;48.130;-2.040;2023-03-24T06:44:33;7.82;;;1.63;;
61397;SDS011;47267;48.130;-2.040;2023-03-24T06:46:59;6.75;;;1.98;;
61397;SDS011;47267;48.130;-2.040;2023-03-24T06:49:25;7.10;;;1.70;;
61397;SDS011;47267;48.130;-2.040;2023-03-24T06:51:53;8.40;;;1.70;;
61397;SDS011;47267;48.130;-2.040;2023-03-24T06:54:19;6.00;;;1.95;;
61397;SDS011;47267;48.130;-2.040;2023-03-24T06:56:46;8.88;;;2.00;;
61397;SDS011;47267;48.130;-2.040;2023-03-24T06:59:12;10.50;;;2.08;;
61397;SDS011;47267;48.130;-2.040;2023-03-24T07:01:37;7.85;;;2.20;;
61397;SDS011;47267;48.130;-2.040;2023-03-24T07:04:04;13.13;;;2.40;;
61397;SDS011;47267;48.130;-2.040;2023-03-24T07:06:30;11.23;;;3.00;;
61397;SDS011;47267;48.130;-2.040;2023-03-24T07:08:56;16.65;;;3.03;;
61397;SDS011;47267;48.130;-2.040;2023-03-24T07:11:22;12.10;;;2.60;;
61397;SDS011;47267;48.130;-2.040;2023-03-24T07:13:51;11.15;;;2.67;;
61397;SDS011;47267;48.130;-2.040;2023-03-24T07:16:17;13.82;;;3.13;;
61397;SDS011;47267;48.130;-2.040;2023-03-24T07:18:43;11.43;;;2.30;;
61397;SDS011;47267;48.130;-2.040;2023-03-24T07:21:09;9.07;;;2.55;;
61397;SDS011;47267;48.130;-2.040;2023-03-24T07:23:35;12.00;;;2.50;;
61397;SDS011;47267;48.130;-2.040;2023-03-24T07:26:01;7.22;;;2.10;;
61397;SDS011;47267;48.130;-2.040;2023-03-24T07:28:26;11.15;;;2.75;;
61397;SDS011;47267;48.130;-2.040;2023-03-24T07:30:52;11.05;;;2.67;;
61397;SDS011;47267;48.130;-2.040;2023-03-24T07:33:18;9.30;;;2.63;;
61397;SDS011;47267;48.130;-2.040;2023-03-24T07:35:44;11.05;;;2.47;;
61397;SDS011;47267;48.130;-2.040;2023-03-24T07:38:10;8.95;;;2.15;;
61397;SDS011;47267;48.130;-2.040;2023-03-24T07:40:36;8.93;;;2.63;;
61397;SDS011;47267;48.130;-2.040;2023-03-24T07:43:02;7.65;;;1.83;;
61397;SDS011;47267;48.130;-2.040;2023-03-24T07:45:29;9.52;;;2.33;;
61397;SDS011;47267;48.130;-2.040;2023-03-24T07:47:56;8.05;;;2.78;;
61397;SDS011;47267;48.130;-2.040;2023-03-24T07:50:26;9.63;;;2.35;;
61397;SDS011;47267;48.130;-2.040;2023-03-24T07:52:53;9.70;;;2.83;;
61397;SDS011;47267;48.130;-2.040;2023-03-24T07:55:18;6.90;;;2.03;;
61397;SDS011;47267;48.130;-2.040;2023-03-24T07:57:45;6.88;;;2.35;;
61397;SDS011;47267;48.130;-2.040;2023-03-24T08:00:12;10.00;;;2.03;;
61397;SDS011;47267;48.130;-2.040;2023-03-24T08:02:45;7.88;;;2.08;;
61397;SDS011;47267;48.130;-2.040;2023-03-24T08:05:16;8.80;;;2.17;;
61397;SDS011;47267;48.130;-2.040;2023-03-24T08:07:44;7.18;;;2.00;;
61397;SDS011;47267;48.130;-2.040;2023-03-24T08:10:17;8.40;;;2.15;;
61397;SDS011;47267;48.130;-2.040;2023-03-24T08:12:45;7.40;;;2.13;;
61397;SDS011;47267;48.130;-2.040;2023-03-24T08:15:11;7.78;;;2.00;;
61397;SDS011;47267;48.130;-2.040;2023-03-24T08:17:39;8.70;;;2.10;;
61397;SDS011;47267;48.130;-2.040;2023-03-24T08:20:06;9.30;;;2.58;;
61397;SDS011;47267;48.130;-2.040;2023-03-24T08:22:38;5.97;;;1.90;;
61397;SDS011;47267;48.130;-2.040;2023-03-24T08:25:06;6.90;;;1.85;;
61397;SDS011;47267;48.130;-2.040;2023-03-24T08:27:34;9.43;;;2.15;;
61397;SDS011;47267;48.130;-2.040;2023-03-24T08:30:02;10.90;;;2.35;;
61397;SDS011;47267;48.130;-2.040;2023-03-24T08:32:31;8.07;;;1.90;;
61397;SDS011;47267;48.130;-2.040;2023-03-24T08:34:57;8.32;;;2.10;;
61397;SDS011;47267;48.130;-2.040;2023-03-24T08:37:23;7.22;;;1.67;;
61397;SDS011;47267;48.130;-2.040;2023-03-24T08:39:49;4.55;;;1.63;;
61397;SDS011;47267;48.130;-2.040;2023-03-24T08:42:15;10.98;;;2.05;;
61397;SDS011;47267;48.130;-2.040;2023-03-24T08:44:41;10.18;;;2.60;;
61397;SDS011;47267;48.130;-2.040;2023-03-24T08:47:06;7.07;;;1.75;;
61397;SDS011;47267;48.130;-2.040;2023-03-24T08:49:32;8.20;;;2.15;;
61397;SDS011;47267;48.130;-2.040;2023-03-24T08:51:58;8.18;;;2.30;;
61397;SDS011;47267;48.130;-2.040;2023-03-24T08:54:23;7.90;;;2.13;;
61397;SDS011;47267;48.130;-2.040;2023-03-24T08:56:50;7.90;;;1.70;;
61397;SDS011;47267;48.130;-2.040;2023-03-24T08:59:16;9.50;;;2.30;;
61397;SDS011;47267;48.130;-2.040;2023-03-24T09:01:41;7.13;;;1.90;;
61397;SDS011;47267;48.130;-2.040;2023-03-24T09:04:08;7.82;;;1.73;;
61397;SDS011;47267;48.130;-2.040;2023-03-24T09:06:33;7.53;;;1.70;;
61397;SDS011;47267;48.130;-2.040;2023-03-24T09:08:59;11.63;;;2.13;;
61397;SDS011;47267;48.130;-2.040;2023-03-24T09:11:25;9.52;;;2.33;;
61397;SDS011;47267;48.130;-2.040;2023-03-24T09:13:51;10.32;;;2.22;;
61397;SDS011;47267;48.130;-2.040;2023-03-24T09:16:17;9.27;;;2.70;;
61397;SDS011;47267;48.130;-2.040;2023-03-24T09:18:43;10.18;;;2.33;;
61397;SDS011;47267;48.130;-2.040;2023-03-24T09:21:10;10.45;;;2.28;;
61397;SDS011;47267;48.130;-2.040;2023-03-24T09:23:36;8.88;;;2.38;;
61397;SDS011;47267;48.130;-2.040;2023-03-24T09:26:02;10.18;;;2.63;;
61397;SDS011;47267;48.130;-2.040;2023-03-24T09:28:29;8.75;;;2.28;;
61397;SDS011;47267;48.130;-2.040;2023-03-24T09:30:56;9.43;;;2.03;;
61397;SDS011;47267;48.130;-2.040;2023-03-24T09:33:26;7.15;;;2.00;;
61397;SDS011;47267;48.130;-2.040;2023-03-24T09:35:57;8.73;;;2.40;;
61397;SDS011;47267;48.130;-2.040;2023-03-24T09:38:24;7.50;;;2.15;;
61397;SDS011;47267;48.130;-2.040;2023-03-24T09:40:54;9.73;;;2.50;;
61397;SDS011;47267;48.130;-2.040;2023-03-24T09:43:32;10.35;;;2.30;;
61397;SDS011;47267;48.130;-2.040;2023-03-24T09:46:03;9.32;;;2.10;;
61397;SDS011;47267;48.130;-2.040;2023-03-24T09:48:56;8.20;;;2.10;;
61397;SDS011;47267;48.130;-2.040;2023-03-24T09:51:23;6.35;;;2.30;;
61397;SDS011;47267;48.130;-2.040;2023-03-24T09:56:32;7.93;;;2.28;;
61397;SDS011;47267;48.130;-2.040;2023-03-24T09:59:14;6.13;;;1.98;;
61397;SDS011;47267;48.130;-2.040;2023-03-24T10:01:45;10.07;;;1.85;;
61397;SDS011;47267;48.130;-2.040;2023-03-24T10:04:15;6.70;;;1.73;;
61397;SDS011;47267;48.130;-2.040;2023-03-24T10:06:44;13.40;;;2.35;;
61397;SDS011;47267;48.130;-2.040;2023-03-24T10:09:28;10.77;;;2.13;;
61397;SDS011;47267;48.130;-2.040;2023-03-24T10:20:19;6.15;;;1.60;;
61397;SDS011;47267;48.130;-2.040;2023-03-24T10:25:39;7.45;;;2.17;;
61397;SDS011;47267;48.130;-2.040;2023-03-24T10:28:22;7.05;;;1.83;;
61397;SDS011;47267;48.130;-2.040;2023-03-24T10:30:59;7.43;;;1.65;;
61397;SDS011;47267;48.130;-2.040;2023-03-24T10:33:29;8.88;;;2.08;;
61397;SDS011;47267;48.130;-2.040;2023-03-24T10:35:57;7.50;;;1.80;;
61397;SDS011;47267;48.130;-2.040;2023-03-24T10:38:32;6.13;;;1.83;;
61397;SDS011;47267;48.130;-2.040;2023-03-24T10:40:58;11.07;;;2.10;;
61397;SDS011;47267;48.130;-2.040;2023-03-24T10:43:25;8.13;;;1.92;;
61397;SDS011;47267;48.130;-2.040;2023-03-24T10:45:52;6.97;;;1.70;;
61397;SDS011;47267;48.130;-2.040;2023-03-24T10:51:04;7.85;;;1.90;;
61397;SDS011;47267;48.130;-2.040;2023-03-24T10:53:31;10.20;;;2.08;;
61397;SDS011;47267;48.130;-2.040;2023-03-24T10:55:58;6.53;;;1.98;;
61397;SDS011;47267;48.130;-2.040;2023-03-24T10:58:37;8.20;;;2.30;;
61397;SDS011;47267;48.130;-2.040;2023-03-24T11:04:01;7.07;;;1.90;;
61397;SDS011;47267;48.130;-2.040;2023-03-24T11:06:31;6.07;;;1.73;;
61397;SDS011;47267;48.130;-2.040;2023-03-24T11:09:08;8.45;;;1.77;;
61397;SDS011;47267;48.130;-2.040;2023-03-24T11:11:35;8.63;;;2.17;;
61397;SDS011;47267;48.130;-2.040;2023-03-24T11:14:01;7.82;;;1.90;;
61397;SDS011;47267;48.130;-2.040;2023-03-24T11:21:20;9.43;;;2.33;;
61397;SDS011;47267;48.130;-2.040;2023-03-24T11:23:46;10.88;;;3.15;;
61397;SDS011;47267;48.130;-2.040;2023-03-24T11:28:46;31.25;;;7.72;;
61397;SDS011;47267;48.130;-2.040;2023-03-24T11:31:20;31.95;;;9.52;;
61397;SDS011;47267;48.130;-2.040;2023-03-24T11:34:13;32.08;;;9.18;;
61397;SDS011;47267;48.130;-2.040;2023-03-24T11:36:49;31.27;;;9.98;;
61397;SDS011;47267;48.130;-2.040;2023-03-24T11:39:22;35.88;;;10.00;;
61397;SDS011;47267;48.130;-2.040;2023-03-24T11:47:21;32.65;;;10.13;;
61397;SDS011;47267;48.130;-2.040;2023-03-24T11:49:53;31.98;;;10.73;;
61397;SDS011;47267;48.130;-2.040;2023-03-24T11:52:38;41.03;;;11.35;;
61397;SDS011;47267;48.130;-2.040;2023-03-24T11:55:15;36.90;;;10.65;;
61397;SDS011;47267;48.130;-2.040;2023-03-24T12:00:39;37.75;;;10.13;;
61397;SDS011;47267;48.130;-2.040;2023-03-24T12:03:31;33.53;;;10.55;;
61397;SDS011;47267;48.130;-2.040;2023-03-24T12:17:40;30.05;;;9.32;;
61397;SDS011;47267;48.130;-2.040;2023-03-24T12:23:08;25.08;;;8.55;;
61397;SDS011;47267;48.130;-2.040;2023-03-24T12:25:45;31.40;;;8.93;;
61397;SDS011;47267;48.130;-2.040;2023-03-24T12:36:45;26.10;;;8.77;;
61397;SDS011;47267;48.130;-2.040;2023-03-24T12:39:28;23.25;;;8.35;;
61397;SDS011;47267;48.130;-2.040;2023-03-24T12:49:29;23.00;;;7.13;;
61397;SDS011;47267;48.130;-2.040;2023-03-24T12:52:18;23.05;;;7.90;;
61397;SDS011;47267;48.130;-2.040;2023-03-24T12:54:56;20.30;;;8.20;;
61397;SDS011;47267;48.130;-2.040;2023-03-24T12:57:40;22.05;;;7.95;;
61397;SDS011;47267;48.130;-2.040;2023-03-24T13:02:47;21.83;;;7.45;;
61397;SDS011;47267;48.130;-2.040;2023-03-24T13:05:18;15.73;;;6.82;;
61397;SDS011;47267;48.130;-2.040;2023-03-24T13:07:51;18.08;;;6.65;;
61397;SDS011;47267;48.130;-2.040;2023-03-24T13:10:23;17.45;;;6.65;;
61397;SDS011;47267;48.130;-2.040;2023-03-24T13:12:55;17.40;;;6.57;;
61397;SDS011;47267;48.130;-2.040;2023-03-24T13:15:45;18.80;;;6.70;;
61397;SDS011;47267;48.130;-2.040;2023-03-24T13:18:33;16.70;;;6.43;;
61397;SDS011;47267;48.130;-2.040;2023-03-24T13:21:09;14.50;;;5.33;;
61397;SDS011;47267;48.130;-2.040;2023-03-24T13:23:47;14.90;;;5.43;;
61397;SDS011;47267;48.130;-2.040;2023-03-24T13:37:21;13.73;;;5.07;;
61397;SDS011;47267;48.130;-2.040;2023-03-24T13:39:57;16.38;;;5.70;;
61397;SDS011;47267;48.130;-2.040;2023-03-24T13:42:34;18.00;;;5.22;;
61397;SDS011;47267;48.130;-2.040;2023-03-24T13:45:06;13.98;;;5.32;;
61397;SDS011;47267;48.130;-2.040;2023-03-24T13:48:02;17.55;;;5.60;;
61397;SDS011;47267;48.130;-2.040;2023-03-24T13:50:49;14.73;;;5.30;;
61397;SDS011;47267;48.130;-2.040;2023-03-24T13:53:37;13.55;;;5.15;;
61397;SDS011;47267;48.130;-2.040;2023-03-24T13:56:07;13.82;;;4.70;;
61397;SDS011;47267;48.130;-2.040;2023-03-24T14:05:07;14.48;;;4.50;;
61397;SDS011;47267;48.130;-2.040;2023-03-24T14:07:46;15.75;;;4.68;;
61397;SDS011;47267;48.130;-2.040;2023-03-24T14:12:51;14.85;;;4.80;;
61397;SDS011;47267;48.130;-2.040;2023-03-24T14:15:21;11.50;;;4.07;;
61397;SDS011;47267;48.130;-2.040;2023-03-24T14:26:14;10.45;;;3.72;;
61397;SDS011;47267;48.130;-2.040;2023-03-24T14:28:58;8.93;;;3.55;;
61397;SDS011;47267;48.130;-2.040;2023-03-24T14:31:27;11.98;;;4.00;;
61397;SDS011;47267;48.130;-2.040;2023-03-24T14:36:30;9.73;;;3.75;;
61397;SDS011;47267;48.130;-2.040;2023-03-24T14:41:47;10.90;;;4.05;;
61397;SDS011;47267;48.130;-2.040;2023-03-24T14:44:50;9.88;;;3.58;;
61397;SDS011;47267;48.130;-2.040;2023-03-24T14:47:34;10.45;;;3.85;;
61397;SDS011;47267;48.130;-2.040;2023-03-24T14:50:02;9.95;;;3.17;;
61397;SDS011;47267;48.130;-2.040;2023-03-24T14:53:00;8.40;;;2.95;;
61397;SDS011;47267;48.130;-2.040;2023-03-24T14:55:27;8.43;;;3.20;;
61397;SDS011;47267;48.130;-2.040;2023-03-24T14:57:55;7.78;;;3.28;;
61397;SDS011;47267;48.130;-2.040;2023-03-24T15:00:41;11.52;;;3.22;;
61397;SDS011;47267;48.130;-2.040;2023-03-24T15:03:16;7.15;;;2.97;;
61397;SDS011;47267;48.130;-2.040;2023-03-24T15:06:15;8.88;;;3.13;;
61397;SDS011;47267;48.130;-2.040;2023-03-24T15:08:43;8.88;;;2.83;;
61397;SDS011;47267;48.130;-2.040;2023-03-24T15:11:13;6.60;;;2.65;;
61397;SDS011;47267;48.130;-2.040;2023-03-24T15:13:48;7.35;;;2.70;;
61397;SDS011;47267;48.130;-2.040;2023-03-24T15:16:20;7.45;;;3.10;;
61397;SDS011;47267;48.130;-2.040;2023-03-24T15:26:46;6.30;;;2.50;;
61397;SDS011;47267;48.130;-2.040;2023-03-24T15:29:32;7.03;;;2.40;;
61397;SDS011;47267;48.130;-2.040;2023-03-24T15:31:58;5.28;;;2.55;;
61397;SDS011;47267;48.130;-2.040;2023-03-24T15:34:58;7.82;;;2.45;;
61397;SDS011;47267;48.130;-2.040;2023-03-24T15:37:21;9.05;;;2.97;;
61397;SDS011;47267;48.130;-2.040;2023-03-24T15:39:49;8.82;;;2.47;;
61397;SDS011;47267;48.130;-2.040;2023-03-24T15:42:22;7.90;;;2.75;;
61397;SDS011;47267;48.130;-2.040;2023-03-24T15:44:49;5.32;;;2.28;;
61397;SDS011;47267;48.130;-2.040;2023-03-24T15:47:21;6.45;;;2.47;;
61397;SDS011;47267;48.130;-2.040;2023-03-24T15:49:50;6.43;;;2.47;;
61397;SDS011;47267;48.130;-2.040;2023-03-24T15:52:30;7.00;;;2.63;;
61397;SDS011;47267;48.130;-2.040;2023-03-24T15:57:48;7.07;;;2.60;;
61397;SDS011;47267;48.130;-2.040;2023-03-24T16:00:14;6.55;;;2.22;;
61397;SDS011;47267;48.130;-2.040;2023-03-24T16:02:47;7.80;;;2.22;;
61397;SDS011;47267;48.130;-2.040;2023-03-24T16:05:21;8.40;;;2.40;;
61397;SDS011;47267;48.130;-2.040;2023-03-24T16:13:14;8.17;;;2.43;;
61397;SDS011;47267;48.130;-2.040;2023-03-24T16:15:42;7.90;;;2.40;;
61397;SDS011;47267;48.130;-2.040;2023-03-24T16:18:17;9.88;;;2.53;;
61397;SDS011;47267;48.130;-2.040;2023-03-24T16:20:46;6.68;;;2.40;;
61397;SDS011;47267;48.130;-2.040;2023-03-24T16:23:11;7.05;;;2.30;;
61397;SDS011;47267;48.130;-2.040;2023-03-24T16:25:37;4.93;;;1.80;;
61397;SDS011;47267;48.130;-2.040;2023-03-24T16:28:03;7.38;;;2.65;;
61397;SDS011;47267;48.130;-2.040;2023-03-24T16:30:31;5.90;;;2.22;;
61397;SDS011;47267;48.130;-2.040;2023-03-24T16:33:02;5.40;;;2.30;;
61397;SDS011;47267;48.130;-2.040;2023-03-24T16:35:28;7.57;;;2.05;;
61397;SDS011;47267;48.130;-2.040;2023-03-24T16:37:54;10.30;;;2.35;;
61397;SDS011;47267;48.130;-2.040;2023-03-24T16:40:21;6.55;;;2.22;;
61397;SDS011;47267;48.130;-2.040;2023-03-24T16:42:57;7.28;;;2.15;;
61397;SDS011;47267;48.130;-2.040;2023-03-24T16:45:28;5.55;;;1.98;;
61397;SDS011;47267;48.130;-2.040;2023-03-24T16:47:54;6.93;;;2.08;;
61397;SDS011;47267;48.130;-2.040;2023-03-24T16:50:31;8.15;;;2.35;;
61397;SDS011;47267;48.130;-2.040;2023-03-24T16:53:02;5.03;;;1.83;;
61397;SDS011;47267;48.130;-2.040;2023-03-24T16:55:30;5.32;;;1.88;;
61397;SDS011;47267;48.130;-2.040;2023-03-24T16:57:56;5.88;;;1.73;;
61397;SDS011;47267;48.130;-2.040;2023-03-24T17:00:22;6.20;;;1.75;;
61397;SDS011;47267;48.130;-2.040;2023-03-24T17:02:48;6.18;;;1.90;;
61397;SDS011;47267;48.130;-2.040;2023-03-24T17:05:18;5.13;;;1.80;;
61397;SDS011;47267;48.130;-2.040;2023-03-24T17:07:47;5.00;;;1.95;;
61397;SDS011;47267;48.130;-2.040;2023-03-24T17:10:13;7.38;;;2.42;;
61397;SDS011;47267;48.130;-2.040;2023-03-24T17:12:39;5.05;;;1.70;;
61397;SDS011;47267;48.130;-2.040;2023-03-24T17:15:06;4.95;;;1.75;;
61397;SDS011;47267;48.130;-2.040;2023-03-24T17:17:38;6.55;;;1.60;;
61397;SDS011;47267;48.130;-2.040;2023-03-24T17:20:04;5.10;;;1.63;;
61397;SDS011;47267;48.130;-2.040;2023-03-24T17:22:30;3.92;;;1.30;;
61397;SDS011;47267;48.130;-2.040;2023-03-24T17:24:56;5.53;;;1.40;;
61397;SDS011;47267;48.130;-2.040;2023-03-24T17:27:22;3.88;;;1.38;;
61397;SDS011;47267;48.130;-2.040;2023-03-24T17:29:48;4.80;;;1.60;;
61397;SDS011;47267;48.130;-2.040;2023-03-24T17:32:14;3.63;;;1.70;;
61397;SDS011;47267;48.130;-2.040;2023-03-24T17:34:44;4.32;;;1.55;;
61397;SDS011;47267;48.130;-2.040;2023-03-24T17:37:10;4.18;;;1.50;;
61397;SDS011;47267;48.130;-2.040;2023-03-24T17:39:36;6.38;;;1.40;;
61397;SDS011;47267;48.130;-2.040;2023-03-24T17:42:02;4.43;;;1.50;;
61397;SDS011;47267;48.130;-2.040;2023-03-24T17:44:28;3.95;;;1.52;;